createdAt,value
2019-02-11T00:00:59.806Z,89.65
2019-02-11T00:02:03.956Z,89.62
2019-02-11T00:03:08.198Z,89.57
2019-02-11T00:04:15.271Z,89.65
2019-02-11T00:05:18.446Z,89.74
2019-02-11T00:06:22.598Z,89.77
2019-02-11T00:07:26.660Z,89.76
2019-02-11T00:08:30.879Z,89.83
2019-02-11T00:09:35.096Z,89.81
2019-02-11T00:10:39.283Z,89.63
2019-02-11T00:11:43.483Z,89.56
2019-02-11T00:12:47.638Z,89.51
2019-02-11T00:13:51.888Z,89.34
2019-02-11T00:14:55.925Z,89.15
2019-02-11T00:16:00.082Z,89.19
2019-02-11T00:17:04.096Z,89.23
2019-02-11T00:18:08.388Z,89.21
2019-02-11T00:19:12.470Z,88.83
2019-02-11T00:20:16.546Z,88.80
2019-02-11T00:21:20.783Z,88.89
2019-02-11T00:22:24.868Z,88.89
2019-02-11T00:23:29.035Z,88.93
2019-02-11T00:24:33.157Z,88.89
2019-02-11T00:25:37.378Z,88.75
2019-02-11T00:26:41.541Z,88.48
2019-02-11T00:27:45.553Z,88.42
2019-02-11T00:28:49.813Z,88.41
2019-02-11T00:29:54.043Z,88.47
2019-02-11T00:30:58.140Z,88.47
2019-02-11T00:32:02.355Z,88.55
2019-02-11T00:33:06.518Z,88.61
2019-02-11T00:34:10.628Z,88.64
2019-02-11T00:35:14.730Z,88.77
2019-02-11T00:36:18.976Z,88.75
2019-02-11T00:37:22.990Z,88.82
2019-02-11T00:38:27.035Z,88.91
2019-02-11T00:39:31.393Z,88.94
2019-02-11T00:40:35.447Z,89.00
2019-02-11T00:41:39.660Z,88.99
2019-02-11T00:42:43.697Z,88.98
2019-02-11T00:43:47.871Z,89.11
2019-02-11T00:44:51.975Z,89.19
2019-02-11T00:45:56.197Z,89.29
2019-02-11T00:47:00.315Z,89.32
2019-02-11T00:48:04.438Z,89.37
2019-02-11T00:49:08.588Z,89.36
2019-02-11T00:50:12.732Z,89.42
2019-02-11T00:51:16.905Z,89.50
2019-02-11T00:52:21.067Z,89.64
2019-02-11T00:53:25.229Z,89.66
2019-02-11T00:54:29.395Z,89.65
2019-02-11T00:55:33.510Z,89.66
2019-02-11T00:56:37.589Z,89.77
2019-02-11T00:57:41.889Z,89.79
2019-02-11T00:58:45.926Z,89.84
2019-02-11T00:59:50.118Z,89.94
2019-02-11T01:00:54.298Z,89.99
2019-02-11T01:01:58.379Z,90.04
2019-02-11T01:03:02.485Z,90.05
2019-02-11T01:04:06.713Z,90.17
2019-02-11T01:05:10.846Z,90.23
2019-02-11T01:06:15.004Z,90.27
2019-02-11T01:07:19.192Z,90.28
2019-02-11T01:08:23.293Z,90.31
2019-02-11T01:09:27.352Z,90.36
2019-02-11T01:10:31.582Z,90.37
2019-02-11T01:11:35.685Z,90.39
2019-02-11T01:12:39.920Z,90.39
2019-02-11T01:13:43.966Z,90.36
2019-02-11T01:14:48.201Z,90.31
2019-02-11T01:15:52.342Z,90.30
2019-02-11T01:16:56.441Z,90.32
2019-02-11T01:18:00.667Z,90.29
2019-02-11T01:19:04.765Z,90.27
2019-02-11T01:20:08.966Z,90.29
2019-02-11T01:21:13.099Z,90.35
2019-02-11T01:22:17.333Z,90.35
2019-02-11T01:23:21.451Z,90.36
2019-02-11T01:24:25.676Z,90.38
2019-02-11T01:25:29.860Z,90.41
2019-02-11T01:26:34.060Z,90.50
2019-02-11T01:27:38.218Z,90.57
2019-02-11T01:28:42.331Z,90.68
2019-02-11T01:29:46.539Z,90.85
2019-02-11T01:30:50.642Z,91.16
2019-02-11T01:31:54.781Z,91.27
2019-02-11T01:32:59.023Z,91.39
2019-02-11T01:34:03.231Z,91.74
2019-02-11T01:35:07.415Z,92.24
2019-02-11T01:36:11.545Z,92.52
2019-02-11T01:37:15.769Z,92.62
2019-02-11T01:38:19.933Z,92.63
2019-02-11T01:39:24.110Z,92.59
2019-02-11T01:40:28.325Z,92.64
2019-02-11T01:41:32.537Z,92.66
2019-02-11T01:42:36.671Z,92.75
2019-02-11T01:43:40.939Z,92.85
2019-02-11T01:44:45.119Z,92.84
2019-02-11T01:45:49.216Z,92.78
2019-02-11T01:46:53.556Z,92.74
2019-02-11T01:47:57.616Z,92.65
2019-02-11T01:49:01.863Z,92.51
2019-02-11T01:50:06.051Z,92.41
2019-02-11T01:51:10.106Z,92.32
2019-02-11T01:52:14.378Z,92.12
2019-02-11T01:53:18.419Z,91.96
2019-02-11T01:54:22.565Z,91.92
2019-02-11T01:55:26.845Z,91.84
2019-02-11T01:56:30.946Z,91.61
2019-02-11T01:57:35.217Z,91.51
2019-02-11T01:58:39.435Z,91.39
2019-02-11T01:59:43.654Z,91.25
2019-02-11T02:00:47.772Z,91.14
2019-02-11T02:01:51.948Z,91.05
2019-02-11T02:02:56.187Z,90.95
2019-02-11T02:04:00.363Z,90.84
2019-02-11T02:05:04.577Z,90.71
2019-02-11T02:06:08.775Z,90.65
2019-02-11T02:07:12.979Z,90.57
2019-02-11T02:08:17.094Z,90.58
2019-02-11T02:09:21.225Z,90.43
2019-02-11T02:10:25.464Z,90.36
2019-02-11T02:11:29.651Z,90.35
2019-02-11T02:12:33.758Z,90.32
2019-02-11T02:13:44.618Z,90.21
2019-02-11T02:14:42.168Z,90.10
2019-02-11T02:15:46.281Z,90.02
2019-02-11T02:16:50.466Z,89.94
2019-02-11T02:17:54.700Z,89.77
2019-02-11T02:18:58.799Z,89.74
2019-02-11T02:20:02.941Z,89.67
2019-02-11T02:21:07.074Z,89.35
2019-02-11T02:22:11.247Z,89.18
2019-02-11T02:23:15.389Z,89.10
2019-02-11T02:24:19.519Z,89.15
2019-02-11T02:25:23.735Z,89.17
2019-02-11T02:26:27.872Z,89.18
2019-02-11T02:27:32.035Z,89.20
2019-02-11T02:28:36.118Z,89.06
2019-02-11T02:29:40.448Z,89.17
2019-02-11T02:30:44.608Z,89.21
2019-02-11T02:31:48.781Z,89.15
2019-02-11T02:32:52.972Z,89.16
2019-02-11T02:33:57.025Z,89.12
2019-02-11T02:35:01.158Z,89.12
2019-02-11T02:36:05.350Z,89.13
2019-02-11T02:37:09.633Z,89.08
2019-02-11T02:38:13.806Z,89.03
2019-02-11T02:39:17.827Z,89.07
2019-02-11T02:40:22.125Z,89.08
2019-02-11T02:41:26.298Z,89.08
2019-02-11T02:42:30.517Z,89.10
2019-02-11T02:43:34.687Z,89.11
2019-02-11T02:44:38.752Z,89.05
2019-02-11T02:45:42.909Z,89.08
2019-02-11T02:46:46.954Z,89.08
2019-02-11T02:47:51.278Z,89.12
2019-02-11T02:48:55.435Z,89.19
2019-02-11T02:49:59.638Z,89.26
2019-02-11T02:51:03.839Z,89.35
2019-02-11T02:52:07.888Z,89.39
2019-02-11T02:53:12.144Z,89.39
2019-02-11T02:54:16.308Z,89.46
2019-02-11T02:55:20.386Z,89.33
2019-02-11T02:56:24.519Z,89.36
2019-02-11T02:57:28.719Z,89.38
2019-02-11T02:58:32.935Z,89.42
2019-02-11T02:59:37.147Z,89.45
2019-02-11T03:00:41.276Z,89.49
2019-02-11T03:01:45.415Z,89.48
2019-02-11T03:02:49.745Z,89.42
2019-02-11T03:03:53.924Z,89.44
2019-02-11T03:04:58.034Z,89.39
2019-02-11T03:06:02.287Z,89.42
2019-02-11T03:07:06.434Z,89.42
2019-02-11T03:08:10.579Z,89.40
2019-02-11T03:09:14.694Z,89.41
2019-02-11T03:10:18.793Z,89.42
2019-02-11T03:11:23.087Z,89.43
2019-02-11T03:12:27.175Z,89.42
2019-02-11T03:13:31.450Z,89.40
2019-02-11T03:14:35.533Z,89.37
2019-02-11T03:15:39.828Z,89.39
2019-02-11T03:16:43.933Z,89.39
2019-02-11T03:17:48.175Z,89.29
2019-02-11T03:18:52.378Z,89.28
2019-02-11T03:19:56.441Z,89.28
2019-02-11T03:21:00.631Z,89.26
2019-02-11T03:22:04.719Z,89.22
2019-02-11T03:23:08.966Z,89.19
2019-02-11T03:24:13.194Z,89.03
2019-02-11T03:25:17.390Z,89.08
2019-02-11T03:26:21.608Z,89.17
2019-02-11T03:27:25.726Z,89.12
2019-02-11T03:28:30.016Z,89.01
2019-02-11T03:29:34.088Z,88.96
2019-02-11T03:30:38.320Z,88.88
2019-02-11T03:31:42.536Z,88.94
2019-02-11T03:32:46.740Z,88.95
2019-02-11T03:33:50.851Z,88.99
2019-02-11T03:34:55.028Z,88.96
2019-02-11T03:35:59.186Z,88.90
2019-02-11T03:37:03.391Z,88.90
2019-02-11T03:38:07.573Z,88.94
2019-02-11T03:39:11.822Z,88.89
2019-02-11T03:40:16.001Z,88.88
2019-02-11T03:41:20.199Z,88.94
2019-02-11T03:42:24.238Z,88.98
2019-02-11T03:43:28.481Z,89.01
2019-02-11T03:44:32.620Z,89.00
2019-02-11T03:45:36.852Z,89.00
2019-02-11T03:46:41.055Z,89.04
2019-02-11T03:47:45.246Z,89.02
2019-02-11T03:48:49.407Z,89.00
2019-02-11T03:49:53.601Z,89.02
2019-02-11T03:50:57.753Z,88.99
2019-02-11T03:52:01.980Z,88.95
2019-02-11T03:53:06.200Z,89.00
2019-02-11T03:54:10.362Z,89.01
2019-02-11T03:55:14.520Z,89.05
2019-02-11T03:56:18.747Z,89.05
2019-02-11T03:57:22.844Z,89.06
2019-02-11T03:58:27.008Z,89.03
2019-02-11T03:59:31.286Z,89.05
2019-02-11T04:00:35.415Z,88.99
2019-02-11T04:01:39.620Z,89.00
2019-02-11T04:02:43.803Z,88.99
2019-02-11T04:03:47.913Z,88.96
2019-02-11T04:04:52.116Z,89.01
2019-02-11T04:05:56.293Z,89.02
2019-02-11T04:07:00.517Z,89.06
2019-02-11T04:08:04.728Z,89.09
2019-02-11T04:09:08.956Z,89.08
2019-02-11T04:10:13.138Z,89.09
2019-02-11T04:11:17.331Z,89.08
2019-02-11T04:12:21.539Z,89.06
2019-02-11T04:13:25.686Z,89.01
2019-02-11T04:14:29.942Z,89.01
2019-02-11T04:15:34.044Z,89.08
2019-02-11T04:16:38.272Z,89.02
2019-02-11T04:17:42.496Z,89.02
2019-02-11T04:18:46.687Z,89.06
2019-02-11T04:19:50.708Z,89.06
2019-02-11T04:20:54.877Z,89.04
2019-02-11T04:21:59.039Z,89.04
2019-02-11T04:23:03.195Z,89.05
2019-02-11T04:24:07.343Z,89.03
2019-02-11T04:25:11.525Z,89.00
2019-02-11T04:26:15.628Z,89.01
2019-02-11T04:27:19.860Z,88.99
2019-02-11T04:28:24.040Z,89.03
2019-02-11T04:29:28.215Z,89.02
2019-02-11T04:30:32.433Z,89.03
2019-02-11T04:31:36.481Z,89.05
2019-02-11T04:32:40.743Z,89.02
2019-02-11T04:33:44.861Z,89.02
2019-02-11T04:34:49.136Z,88.96
2019-02-11T04:35:53.291Z,88.94
2019-02-11T04:36:57.509Z,88.91
2019-02-11T04:38:01.622Z,88.91
2019-02-11T04:39:05.850Z,88.94
2019-02-11T04:40:10.000Z,88.94
2019-02-11T04:41:14.211Z,88.94
2019-02-11T04:42:18.373Z,89.00
2019-02-11T04:43:22.581Z,88.99
2019-02-11T04:44:33.815Z,88.95
2019-02-11T04:45:30.808Z,88.96
2019-02-11T04:46:35.093Z,88.93
2019-02-11T04:47:39.276Z,88.92
2019-02-11T04:48:43.409Z,88.87
2019-02-11T04:49:47.592Z,88.83
2019-02-11T04:50:51.838Z,88.88
2019-02-11T04:51:55.998Z,88.84
2019-02-11T04:53:00.224Z,88.71
2019-02-11T04:54:04.315Z,88.69
2019-02-11T04:55:08.465Z,88.64
2019-02-11T04:56:12.649Z,88.65
2019-02-11T04:57:16.820Z,88.60
2019-02-11T04:58:21.067Z,88.52
2019-02-11T04:59:25.214Z,88.42
2019-02-11T05:00:29.415Z,88.36
2019-02-11T05:01:33.535Z,88.37
2019-02-11T05:02:37.779Z,88.15
2019-02-11T05:03:41.906Z,88.15
2019-02-11T05:04:46.164Z,87.97
2019-02-11T05:05:50.380Z,87.88
2019-02-11T05:06:54.412Z,87.81
2019-02-11T05:07:58.710Z,87.63
2019-02-11T05:09:02.879Z,87.49
2019-02-11T05:10:07.083Z,87.38
2019-02-11T05:11:11.323Z,87.36
2019-02-11T05:12:15.506Z,86.83
2019-02-11T05:13:19.695Z,86.96
2019-02-11T05:14:23.079Z,86.65
2019-02-11T05:15:27.278Z,86.83
2019-02-11T05:16:31.526Z,86.25
2019-02-11T05:17:35.590Z,85.79
2019-02-11T05:18:39.853Z,86.08
2019-02-11T05:19:43.953Z,85.73
2019-02-11T05:20:48.163Z,85.77
2019-02-11T05:21:52.363Z,85.58
2019-02-11T05:22:56.546Z,85.33
2019-02-11T05:24:00.648Z,85.41
2019-02-11T05:25:04.883Z,84.67
2019-02-11T05:26:09.114Z,84.51
2019-02-11T05:27:13.201Z,84.60
2019-02-11T05:28:17.369Z,84.90
2019-02-11T05:29:21.608Z,85.03
2019-02-11T05:30:25.743Z,84.76
2019-02-11T05:31:32.525Z,84.64
2019-02-11T05:32:34.221Z,84.63
2019-02-11T05:33:38.395Z,84.72
2019-02-11T05:34:42.596Z,84.51
2019-02-11T05:35:46.702Z,84.33
2019-02-11T05:36:50.993Z,84.34
2019-02-11T05:37:55.188Z,84.50
2019-02-11T05:38:59.385Z,84.54
2019-02-11T05:40:03.612Z,84.32
2019-02-11T05:41:07.697Z,84.54
2019-02-11T05:42:11.920Z,84.75
2019-02-11T05:43:16.162Z,84.75
2019-02-11T05:44:20.341Z,84.78
2019-02-11T05:45:24.535Z,84.75
2019-02-11T05:46:28.716Z,84.81
2019-02-11T05:47:32.956Z,84.95
2019-02-11T05:48:37.146Z,85.02
2019-02-11T05:49:41.318Z,85.17
2019-02-11T05:50:45.532Z,85.27
2019-02-11T05:51:49.656Z,85.42
2019-02-11T05:52:53.865Z,85.53
2019-02-11T05:53:57.956Z,85.56
2019-02-11T05:55:02.114Z,85.63
2019-02-11T05:56:06.321Z,85.56
2019-02-11T05:57:10.556Z,85.63
2019-02-11T05:58:14.743Z,85.68
2019-02-11T05:59:18.947Z,85.66
2019-02-11T06:00:23.151Z,85.69
2019-02-11T06:01:27.304Z,85.74
2019-02-11T06:02:31.528Z,85.71
2019-02-11T06:03:35.726Z,85.75
2019-02-11T06:04:39.926Z,85.75
2019-02-11T06:05:44.169Z,85.63
2019-02-11T06:06:48.324Z,85.72
2019-02-11T06:07:52.510Z,85.79
2019-02-11T06:08:56.743Z,85.65
2019-02-11T06:10:00.963Z,85.09
2019-02-11T06:11:05.178Z,84.99
2019-02-11T06:12:09.372Z,85.02
2019-02-11T06:13:13.561Z,84.80
2019-02-11T06:14:17.759Z,84.88
2019-02-11T06:15:21.877Z,85.08
2019-02-11T06:16:26.039Z,85.10
2019-02-11T06:17:30.307Z,85.17
2019-02-11T06:18:34.378Z,84.76
2019-02-11T06:19:38.573Z,84.79
2019-02-11T06:20:42.738Z,84.95
2019-02-11T06:21:46.977Z,84.69
2019-02-11T06:22:51.107Z,84.42
2019-02-11T06:23:55.283Z,83.91
2019-02-11T06:24:59.555Z,84.03
2019-02-11T06:26:03.728Z,84.36
2019-02-11T06:27:07.894Z,83.89
2019-02-11T06:28:12.047Z,83.79
2019-02-11T06:29:16.243Z,83.38
2019-02-11T06:30:20.473Z,83.68
2019-02-11T06:31:24.646Z,83.18
2019-02-11T06:32:28.800Z,83.55
2019-02-11T06:33:32.995Z,82.59
2019-02-11T06:34:37.102Z,82.31
2019-02-11T06:35:41.340Z,82.12
2019-02-11T06:36:45.458Z,82.81
2019-02-11T06:37:49.730Z,82.64
2019-02-11T06:38:53.900Z,82.86
2019-02-11T06:39:58.085Z,82.17
2019-02-11T06:41:05.238Z,81.92
2019-02-11T06:42:08.378Z,81.96
2019-02-11T06:43:12.652Z,82.17
2019-02-11T06:44:16.826Z,82.23
2019-02-11T06:45:21.045Z,82.04
2019-02-11T06:46:25.158Z,82.30
2019-02-11T06:47:29.420Z,82.56
2019-02-11T06:48:33.629Z,82.64
2019-02-11T06:49:37.782Z,82.67
2019-02-11T06:50:41.965Z,82.78
2019-02-11T06:51:46.056Z,82.36
2019-02-11T06:52:50.198Z,82.22
2019-02-11T06:53:54.468Z,81.90
2019-02-11T06:54:58.612Z,82.13
2019-02-11T06:56:02.755Z,82.30
2019-02-11T06:57:07.025Z,82.19
2019-02-11T06:58:11.171Z,82.40
2019-02-11T06:59:15.440Z,82.09
2019-02-11T07:00:19.610Z,82.12
2019-02-11T07:01:23.765Z,82.27
2019-02-11T07:02:27.872Z,82.11
2019-02-11T07:03:32.099Z,81.83
2019-02-11T07:04:36.305Z,81.69
2019-02-11T07:05:40.434Z,81.84
2019-02-11T07:06:44.666Z,81.87
2019-02-11T07:07:48.854Z,81.07
2019-02-11T07:08:53.036Z,81.16
2019-02-11T07:09:57.272Z,81.25
2019-02-11T07:11:01.492Z,80.75
2019-02-11T07:12:05.658Z,80.71
2019-02-11T07:13:09.829Z,81.13
2019-02-11T07:14:14.069Z,80.86
2019-02-11T07:15:22.263Z,80.83
2019-02-11T07:16:22.223Z,80.89
2019-02-11T07:17:26.520Z,80.68
2019-02-11T07:18:30.628Z,81.19
2019-02-11T07:19:34.861Z,80.80
2019-02-11T07:20:38.961Z,80.86
2019-02-11T07:21:43.116Z,80.89
2019-02-11T07:22:47.368Z,81.13
2019-02-11T07:23:51.544Z,81.38
2019-02-11T07:24:55.751Z,81.35
2019-02-11T07:25:59.930Z,81.43
2019-02-11T07:27:04.026Z,80.93
2019-02-11T07:28:08.242Z,80.99
2019-02-11T07:29:12.493Z,81.26
2019-02-11T07:30:16.591Z,81.06
2019-02-11T07:31:20.739Z,81.13
2019-02-11T07:32:24.936Z,81.10
2019-02-11T07:33:29.121Z,81.14
2019-02-11T07:34:33.198Z,80.88
2019-02-11T07:35:37.439Z,80.81
2019-02-11T07:36:41.550Z,81.08
2019-02-11T07:37:45.713Z,81.28
2019-02-11T07:38:49.884Z,80.83
2019-02-11T07:39:54.091Z,81.04
2019-02-11T07:40:58.212Z,80.91
2019-02-11T07:42:02.460Z,80.82
2019-02-11T07:43:06.628Z,80.96
2019-02-11T07:44:10.793Z,80.99
2019-02-11T07:45:15.050Z,80.71
2019-02-11T07:46:19.261Z,80.69
2019-02-11T07:47:23.390Z,80.63
2019-02-11T07:48:27.598Z,80.67
2019-02-11T07:49:31.784Z,80.73
2019-02-11T07:50:36.038Z,80.81
2019-02-11T07:51:42.264Z,80.59
2019-02-11T07:52:44.362Z,80.76
2019-02-11T07:53:48.626Z,80.44
2019-02-11T07:54:52.845Z,80.07
2019-02-11T07:55:56.944Z,80.06
2019-02-11T07:57:01.121Z,80.29
2019-02-11T07:58:05.338Z,80.25
2019-02-11T07:59:09.546Z,80.30
2019-02-11T08:00:13.666Z,80.28
2019-02-11T08:01:17.833Z,80.19
2019-02-11T08:02:22.037Z,80.37
2019-02-11T08:03:26.250Z,79.97
2019-02-11T08:04:30.436Z,79.86
2019-02-11T08:05:34.694Z,79.21
2019-02-11T08:06:38.742Z,79.12
2019-02-11T08:07:42.998Z,79.14
2019-02-11T08:08:47.195Z,79.56
2019-02-11T08:09:51.218Z,79.79
2019-02-11T08:10:55.452Z,79.49
2019-02-11T08:12:00.407Z,79.49
2019-02-11T08:13:03.836Z,79.49
2019-02-11T08:14:07.894Z,79.46
2019-02-11T08:15:12.239Z,79.32
2019-02-11T08:16:16.363Z,79.52
2019-02-11T08:17:20.547Z,79.39
2019-02-11T08:18:24.738Z,79.33
2019-02-11T08:19:28.989Z,79.36
2019-02-11T08:20:33.180Z,79.74
2019-02-11T08:21:37.303Z,79.05
2019-02-11T08:22:41.542Z,79.10
2019-02-11T08:23:45.659Z,79.17
2019-02-11T08:24:49.797Z,79.50
2019-02-11T08:25:53.984Z,79.54
2019-02-11T08:26:58.271Z,79.41
2019-02-11T08:28:02.455Z,79.40
2019-02-11T08:29:06.612Z,79.20
2019-02-11T08:30:10.834Z,79.37
2019-02-11T08:31:14.964Z,79.50
2019-02-11T08:32:19.089Z,79.38
2019-02-11T08:33:23.276Z,79.36
2019-02-11T08:34:27.389Z,79.41
2019-02-11T08:35:31.498Z,79.22
2019-02-11T08:36:35.800Z,79.27
2019-02-11T08:37:39.890Z,79.36
2019-02-11T08:38:44.122Z,79.29
2019-02-11T08:39:48.216Z,79.52
2019-02-11T08:40:52.505Z,79.53
2019-02-11T08:41:56.570Z,79.68
2019-02-11T08:43:00.844Z,79.64
2019-02-11T08:44:05.008Z,79.58
2019-02-11T08:45:09.188Z,79.49
2019-02-11T08:46:13.357Z,79.72
2019-02-11T08:47:19.381Z,79.80
2019-02-11T08:48:21.792Z,79.70
2019-02-11T08:49:26.013Z,79.40
2019-02-11T08:50:30.211Z,79.46
2019-02-11T08:51:34.424Z,79.42
2019-02-11T08:52:38.542Z,79.48
2019-02-11T08:53:42.676Z,79.66
2019-02-11T08:54:46.822Z,79.39
2019-02-11T08:55:50.938Z,78.89
2019-02-11T08:56:55.232Z,79.35
2019-02-11T08:57:59.357Z,79.57
2019-02-11T08:59:03.617Z,79.74
2019-02-11T09:00:07.705Z,79.58
2019-02-11T09:01:11.866Z,79.87
2019-02-11T09:02:16.057Z,79.74
2019-02-11T09:03:20.286Z,79.83
2019-02-11T09:04:24.397Z,79.96
2019-02-11T09:05:28.642Z,79.59
2019-02-11T09:06:32.915Z,79.92
2019-02-11T09:07:37.031Z,79.59
2019-02-11T09:08:41.268Z,79.74
2019-02-11T09:09:45.356Z,79.83
2019-02-11T09:10:49.515Z,79.84
2019-02-11T09:11:53.713Z,80.08
2019-02-11T09:12:57.946Z,79.91
2019-02-11T09:14:02.152Z,79.93
2019-02-11T09:15:06.381Z,79.97
2019-02-11T09:16:10.547Z,80.05
2019-02-11T09:17:14.786Z,79.87
2019-02-11T09:18:20.774Z,80.10
2019-02-11T09:19:23.045Z,79.92
2019-02-11T09:20:27.329Z,79.78
2019-02-11T09:21:31.525Z,79.72
2019-02-11T09:22:35.766Z,79.76
2019-02-11T09:23:39.869Z,79.80
2019-02-11T09:24:43.997Z,79.89
2019-02-11T09:25:48.152Z,80.03
2019-02-11T09:26:52.333Z,80.04
2019-02-11T09:27:56.541Z,79.72
2019-02-11T09:29:00.760Z,79.75
2019-02-11T09:30:04.889Z,79.70
2019-02-11T09:31:09.039Z,79.78
2019-02-11T09:32:13.253Z,79.50
2019-02-11T09:33:17.547Z,79.64
2019-02-11T09:34:21.651Z,79.78
2019-02-11T09:35:25.836Z,79.85
2019-02-11T09:36:30.066Z,79.64
2019-02-11T09:37:34.219Z,79.89
2019-02-11T09:38:38.383Z,79.69
2019-02-11T09:39:42.498Z,79.80
2019-02-11T09:40:46.808Z,79.79
2019-02-11T09:41:50.945Z,79.95
2019-02-11T09:42:55.230Z,79.55
2019-02-11T09:43:59.341Z,79.61
2019-02-11T09:45:03.586Z,79.22
2019-02-11T09:46:07.757Z,79.13
2019-02-11T09:47:11.897Z,79.21
2019-02-11T09:48:16.027Z,79.45
2019-02-11T09:49:20.151Z,79.44
2019-02-11T09:50:24.450Z,79.70
2019-02-11T09:51:28.536Z,79.70
2019-02-11T09:52:32.746Z,79.91
2019-02-11T09:53:36.956Z,80.49
2019-02-11T09:54:41.149Z,80.66
2019-02-11T09:55:45.275Z,80.77
2019-02-11T09:56:49.503Z,80.70
2019-02-11T09:57:53.636Z,80.65
2019-02-11T09:58:57.907Z,80.55
2019-02-11T10:00:02.126Z,80.51
2019-02-11T10:01:06.249Z,80.58
2019-02-11T10:02:10.382Z,80.62
2019-02-11T10:03:14.557Z,80.45
2019-02-11T10:04:18.798Z,80.42
2019-02-11T10:05:22.955Z,80.45
2019-02-11T10:06:27.114Z,80.54
2019-02-11T10:07:31.354Z,80.57
2019-02-11T10:08:35.516Z,80.16
2019-02-11T10:09:39.745Z,79.66
2019-02-11T10:10:43.975Z,78.34
2019-02-11T10:11:48.106Z,78.54
2019-02-11T10:12:52.250Z,77.67
2019-02-11T10:13:56.518Z,77.93
2019-02-11T10:15:00.677Z,77.40
2019-02-11T10:16:12.276Z,77.64
2019-02-11T10:17:09.065Z,76.59
2019-02-11T10:18:13.289Z,77.17
2019-02-11T10:19:17.476Z,76.72
2019-02-11T10:20:21.603Z,76.55
2019-02-11T10:21:25.809Z,76.93
2019-02-11T10:22:29.892Z,76.99
2019-02-11T10:23:34.086Z,76.62
2019-02-11T10:24:38.317Z,75.41
2019-02-11T10:25:42.459Z,76.04
2019-02-11T10:26:47.198Z,74.94
2019-02-11T10:27:50.897Z,74.42
2019-02-11T10:28:55.008Z,73.75
2019-02-11T10:29:59.081Z,74.27
2019-02-11T10:31:03.410Z,74.42
2019-02-11T10:32:07.583Z,74.79
2019-02-11T10:33:11.798Z,74.89
2019-02-11T10:34:15.981Z,74.80
2019-02-11T10:35:20.108Z,75.08
2019-02-11T10:36:24.340Z,75.03
2019-02-11T10:37:28.444Z,75.05
2019-02-11T10:38:36.555Z,75.02
2019-02-11T10:39:36.823Z,75.38
2019-02-11T10:40:40.958Z,75.75
2019-02-11T10:41:45.141Z,76.30
2019-02-11T10:42:49.373Z,76.44
2019-02-11T10:43:53.565Z,76.75
2019-02-11T10:44:57.670Z,76.77
2019-02-11T10:46:01.858Z,76.84
2019-02-11T10:47:06.175Z,76.89
2019-02-11T10:48:10.330Z,77.04
2019-02-11T10:49:14.564Z,77.14
2019-02-11T10:50:18.591Z,77.41
2019-02-11T10:51:22.863Z,77.61
2019-02-11T10:52:27.126Z,77.45
2019-02-11T10:53:31.300Z,77.38
2019-02-11T10:54:35.379Z,77.37
2019-02-11T10:55:39.661Z,77.14
2019-02-11T10:56:43.754Z,77.18
2019-02-11T10:57:47.915Z,77.32
2019-02-11T10:58:52.204Z,77.64
2019-02-11T10:59:56.414Z,77.47
2019-02-11T11:01:00.565Z,77.58
2019-02-11T11:02:04.780Z,77.58
2019-02-11T11:03:08.934Z,76.91
2019-02-11T11:04:13.199Z,75.36
2019-02-11T11:05:17.430Z,75.22
2019-02-11T11:06:21.613Z,75.17
2019-02-11T11:07:25.702Z,74.46
2019-02-11T11:08:29.960Z,74.85
2019-02-11T11:09:34.148Z,74.20
2019-02-11T11:10:38.282Z,74.77
2019-02-11T11:11:42.435Z,74.80
2019-02-11T11:12:46.686Z,74.45
2019-02-11T11:13:50.816Z,74.50
2019-02-11T11:14:55.096Z,74.63
2019-02-11T11:15:59.277Z,74.51
2019-02-11T11:17:03.466Z,74.80
2019-02-11T11:18:07.693Z,73.89
2019-02-11T11:19:11.845Z,74.61
2019-02-11T11:20:16.107Z,74.60
2019-02-11T11:21:20.303Z,74.14
2019-02-11T11:22:24.465Z,73.96
2019-02-11T11:23:28.665Z,73.87
2019-02-11T11:24:32.866Z,73.99
2019-02-11T11:25:36.986Z,73.98
2019-02-11T11:26:41.186Z,74.27
2019-02-11T11:27:45.435Z,74.53
2019-02-11T11:28:49.626Z,74.70
2019-02-11T11:29:53.762Z,74.66
2019-02-11T11:30:57.999Z,74.64
2019-02-11T11:32:02.091Z,74.40
2019-02-11T11:33:06.310Z,74.56
2019-02-11T11:34:10.476Z,74.73
2019-02-11T11:35:14.625Z,74.84
2019-02-11T11:36:18.921Z,74.54
2019-02-11T11:37:23.060Z,74.97
2019-02-11T11:38:27.306Z,75.04
2019-02-11T11:39:31.469Z,74.18
2019-02-11T11:40:35.790Z,73.96
2019-02-11T11:41:39.997Z,72.77
2019-02-11T11:42:44.134Z,72.66
2019-02-11T11:43:48.358Z,72.88
2019-02-11T11:44:52.589Z,73.17
2019-02-11T11:45:56.775Z,73.04
2019-02-11T11:47:00.961Z,73.20
2019-02-11T11:48:05.209Z,72.87
2019-02-11T11:49:09.361Z,72.18
2019-02-11T11:50:13.478Z,72.33
2019-02-11T11:51:17.707Z,71.36
2019-02-11T11:52:21.937Z,71.56
2019-02-11T11:53:26.157Z,71.66
2019-02-11T11:54:30.279Z,71.98
2019-02-11T11:55:34.477Z,72.14
2019-02-11T11:56:38.685Z,72.20
2019-02-11T11:57:42.927Z,71.73
2019-02-11T11:58:47.008Z,71.05
2019-02-11T11:59:51.173Z,71.47
2019-02-11T12:00:55.357Z,72.11
2019-02-11T12:01:59.527Z,72.14
2019-02-11T12:03:05.296Z,72.13
2019-02-11T12:04:07.956Z,72.57
2019-02-11T12:05:12.128Z,72.65
2019-02-11T12:06:16.235Z,72.22
2019-02-11T12:07:20.374Z,71.63
2019-02-11T12:08:24.550Z,71.79
2019-02-11T12:09:28.749Z,72.26
2019-02-11T12:10:33.024Z,71.60
2019-02-11T12:11:37.273Z,72.01
2019-02-11T12:12:41.466Z,71.74
2019-02-11T12:13:45.655Z,71.89
2019-02-11T12:14:49.794Z,71.81
2019-02-11T12:15:53.922Z,71.87
2019-02-11T12:17:02.693Z,71.91
2019-02-11T12:18:02.287Z,72.13
2019-02-11T12:19:06.518Z,72.00
2019-02-11T12:20:10.749Z,71.94
2019-02-11T12:21:14.927Z,72.14
2019-02-11T12:22:19.101Z,72.36
2019-02-11T12:23:23.273Z,72.68
2019-02-11T12:24:27.518Z,72.45
2019-02-11T12:25:31.735Z,72.53
2019-02-11T12:26:35.987Z,71.81
2019-02-11T12:27:40.107Z,72.17
2019-02-11T12:28:44.264Z,72.01
2019-02-11T12:29:48.434Z,72.58
2019-02-11T12:30:53.865Z,71.69
2019-02-11T12:31:56.792Z,71.62
2019-02-11T12:33:01.069Z,72.20
2019-02-11T12:34:05.168Z,72.64
2019-02-11T12:35:09.421Z,72.77
2019-02-11T12:36:13.499Z,72.88
2019-02-11T12:37:17.773Z,72.67
2019-02-11T12:38:22.026Z,72.97
2019-02-11T12:39:26.231Z,72.20
2019-02-11T12:40:30.365Z,72.23
2019-02-11T12:41:34.610Z,72.38
2019-02-11T12:42:38.716Z,72.48
2019-02-11T12:43:42.988Z,72.47
2019-02-11T12:44:47.189Z,72.27
2019-02-11T12:45:51.410Z,72.49
2019-02-11T12:47:12.824Z,72.39
2019-02-11T12:47:59.695Z,72.12
2019-02-11T12:49:03.961Z,71.77
2019-02-11T12:50:08.215Z,71.35
2019-02-11T12:51:12.383Z,71.58
2019-02-11T12:52:16.515Z,71.92
2019-02-11T12:53:20.801Z,71.40
2019-02-11T12:54:24.897Z,71.37
2019-02-11T12:55:29.048Z,71.49
2019-02-11T12:56:33.183Z,71.54
2019-02-11T12:57:37.460Z,71.63
2019-02-11T12:58:41.665Z,71.91
2019-02-11T12:59:45.878Z,71.28
2019-02-11T13:00:50.065Z,71.67
2019-02-11T13:01:54.204Z,71.06
2019-02-11T13:02:58.468Z,71.57
2019-02-11T13:04:03.469Z,71.45
2019-02-11T13:05:07.255Z,71.19
2019-02-11T13:06:11.427Z,71.48
2019-02-11T13:07:15.619Z,71.93
2019-02-11T13:08:19.826Z,71.86
2019-02-11T13:09:23.934Z,71.48
2019-02-11T13:10:28.144Z,71.82
2019-02-11T13:11:32.489Z,71.56
2019-02-11T13:12:36.643Z,71.25
2019-02-11T13:13:40.765Z,71.79
2019-02-11T13:14:44.927Z,71.79
2019-02-11T13:16:00.977Z,71.52
2019-02-11T13:16:53.185Z,71.14
2019-02-11T13:17:57.470Z,70.46
2019-02-11T13:19:01.645Z,70.66
2019-02-11T13:20:09.369Z,71.09
2019-02-11T13:21:10.055Z,70.86
2019-02-11T13:22:14.294Z,70.50
2019-02-11T13:23:18.509Z,69.78
2019-02-11T13:24:22.600Z,70.17
2019-02-11T13:25:26.826Z,69.68
2019-02-11T13:26:30.935Z,70.29
2019-02-11T13:27:35.129Z,70.49
2019-02-11T13:28:39.436Z,70.28
2019-02-11T13:29:43.573Z,69.99
2019-02-11T13:30:47.773Z,68.85
2019-02-11T13:31:51.903Z,69.81
2019-02-11T13:32:56.090Z,69.67
2019-02-11T13:34:00.325Z,68.65
2019-02-11T13:35:04.539Z,68.41
2019-02-11T13:36:08.621Z,68.03
2019-02-11T13:37:12.876Z,68.71
2019-02-11T13:38:16.984Z,68.45
2019-02-11T13:39:21.138Z,68.21
2019-02-11T13:40:25.432Z,69.55
2019-02-11T13:41:29.529Z,69.47
2019-02-11T13:42:33.677Z,67.85
2019-02-11T13:43:37.892Z,67.70
2019-02-11T13:44:42.152Z,67.18
2019-02-11T13:45:46.360Z,67.72
2019-02-11T13:46:50.505Z,67.77